Time;durP1;ratioP1;P1;durP2;ratioP2;P2;SDS_P1;SDS_P2;PMS_P1;PMS_P2;Temp;Humidity;BMP_temperature;BMP_pressure;BME280_temperature;BME280_humidity;BME280_pressure;Samples;Min_cycle;Max_cycle;Signal;HPM_P1;HPM_P2
2023/04/29 00:00:56;;;;;;;;;;;12.60;99.90;;;;;;4995729;28;20016;-80
2023/04/29 00:03:21;;;;;;;;;;;12.60;99.90;;;;;;5015015;28;19983;-84
2023/04/29 00:05:47;;;;;;;;;;;12.50;99.90;;;;;;4999740;28;19932;-85
2023/04/29 00:08:13;;;;;;;;;;;12.50;99.90;;;;;;5002026;28;20366;-82
2023/04/29 00:10:41;;;;;;;;;;;12.60;99.90;;;;;;5000464;28;20069;-83
2023/04/29 00:13:07;;;;;;;;;;;12.60;99.90;;;;;;4998407;28;20412;-83
2023/04/29 00:15:32;;;;;;;;;;;12.50;99.90;;;;;;5011762;28;19966;-83
2023/04/29 00:17:58;;;;;;;;;;;12.50;99.90;;;;;;5011959;28;20049;-84
2023/04/29 00:20:23;;;;;;;;;;;12.50;99.90;;;;;;5040665;28;20094;-86
2023/04/29 00:22:49;;;;;;;;;;;12.50;99.90;;;;;;5020059;28;19929;-85
2023/04/29 00:25:15;;;;;;;;;;;12.40;99.90;;;;;;5024071;28;19983;-88
2023/04/29 00:27:41;;;;;;;;;;;12.30;99.90;;;;;;5020928;28;19916;-86
2023/04/29 00:30:07;;;;;;;;;;;12.20;99.90;;;;;;5007519;28;19905;-88
2023/04/29 00:32:33;;;;;;;;;;;12.10;99.90;;;;;;5020931;28;19905;-88
2023/04/29 00:35:01;;;;;;;;;;;12.10;99.90;;;;;;5020211;28;19931;-85
2023/04/29 00:37:26;;;;;;;;;;;12.20;99.90;;;;;;5006768;28;20174;-88
2023/04/29 00:39:52;;;;;;;;;;;12.20;99.90;;;;;;5006932;28;19944;-88
2023/04/29 00:42:20;;;;;;;;;;;12.20;99.90;;;;;;5018783;28;19920;-87
2023/04/29 00:44:46;;;;;;;;;;;12.20;99.90;;;;;;5020539;28;20360;-86
2023/04/29 00:47:11;;;;;;;;;;;12.10;99.90;;;;;;5001851;28;19953;-83
2023/04/29 00:49:40;;;;;;;;;;;12.10;99.90;;;;;;5015954;28;20011;-83
2023/04/29 00:52:07;;;;;;;;;;;12.10;99.90;;;;;;4999869;28;20099;-83
2023/04/29 00:54:36;;;;;;;;;;;12.10;99.90;;;;;;5000182;28;19949;-83
2023/04/29 00:57:02;;;;;;;;;;;12.10;99.90;;;;;;4998091;28;19951;-82
2023/04/29 00:59:32;;;;;;;;;;;12.10;99.90;;;;;;5017451;28;19936;-83
2023/04/29 01:02:06;;;;;;;;;;;12.10;99.90;;;;;;4997023;28;19916;-83
2023/04/29 01:04:32;;;;;;;;;;;12.10;99.90;;;;;;5001538;28;20368;-82
2023/04/29 01:07:02;;;;;;;;;;;12.00;99.90;;;;;;5017393;28;19959;-83
2023/04/29 01:09:45;;;;;;;;;;;12.00;99.90;;;;;;5017653;28;19913;-84
2023/04/29 01:12:29;;;;;;;;;;;12.00;99.90;;;;;;5017639;28;19905;-82
2023/04/29 01:14:58;;;;;;;;;;;12.10;99.90;;;;;;5001197;28;19967;-83
2023/04/29 01:17:25;;;;;;;;;;;12.10;99.90;;;;;;5002749;28;19908;-83
2023/04/29 01:19:53;;;;;;;;;;;11.90;99.90;;;;;;5007639;28;20024;-82
2023/04/29 01:22:20;;;;;;;;;;;11.90;99.90;;;;;;5015377;28;20448;-83
2023/04/29 01:24:47;;;;;;;;;;;11.90;99.90;;;;;;5018214;28;19909;-82
2023/04/29 01:27:18;;;;;;;;;;;11.80;99.90;;;;;;5003754;28;20119;-83
2023/04/29 01:29:53;;;;;;;;;;;11.80;99.90;;;;;;5000926;28;19939;-83
2023/04/29 01:32:28;;;;;;;;;;;11.80;99.90;;;;;;4987818;28;19910;-81
2023/04/29 01:34:58;;;;;;;;;;;11.80;99.90;;;;;;5006459;28;19916;-87
2023/04/29 01:37:32;;;;;;;;;;;11.70;99.90;;;;;;5007838;28;19905;-85
2023/04/29 01:40:05;;;;;;;;;;;11.70;99.90;;;;;;5013254;28;20414;-85
2023/04/29 01:42:37;;;;;;;;;;;11.80;99.90;;;;;;5010296;28;20312;-86
2023/04/29 01:45:05;;;;;;;;;;;11.80;99.90;;;;;;5007499;28;19979;-86
2023/04/29 01:47:31;;;;;;;;;;;11.80;99.90;;;;;;5022859;28;20056;-87
2023/04/29 01:49:56;;;;;;;;;;;11.80;99.90;;;;;;5005277;28;20032;-87
2023/04/29 01:52:22;;;;;;;;;;;11.80;99.90;;;;;;5002445;28;19916;-85
2023/04/29 01:54:47;;;;;;;;;;;11.90;99.90;;;;;;5003946;28;19913;-87
2023/04/29 01:57:13;;;;;;;;;;;11.80;99.90;;;;;;5022980;28;20261;-86
2023/04/29 01:59:39;;;;;;;;;;;11.80;99.90;;;;;;5020208;28;19928;-86
2023/04/29 02:02:22;;;;;;;;;;;11.70;99.90;;;;;;5005045;28;19940;-87
2023/04/29 02:04:49;;;;;;;;;;;11.80;99.90;;;;;;5003231;28;19913;-82
2023/04/29 02:07:15;;;;;;;;;;;11.70;99.90;;;;;;5004486;28;19988;-82
2023/04/29 02:09:40;;;;;;;;;;;11.70;99.90;;;;;;5020088;28;19996;-84
2023/04/29 02:12:06;;;;;;;;;;;11.70;99.90;;;;;;5000460;28;19932;-82
2023/04/29 02:14:33;;;;;;;;;;;11.70;99.90;;;;;;5022328;28;20153;-82
2023/04/29 02:16:58;;;;;;;;;;;11.60;99.90;;;;;;5010200;28;19909;-81
2023/04/29 02:19:24;;;;;;;;;;;11.60;99.90;;;;;;5004176;28;20104;-83
2023/04/29 02:21:50;;;;;;;;;;;11.60;99.90;;;;;;5017601;28;19905;-82
2023/04/29 02:24:15;;;;;;;;;;;11.60;99.90;;;;;;5004471;28;19905;-84
2023/04/29 02:27:04;;;;;;;;;;;11.60;99.90;;;;;;5005096;28;19918;-82
2023/04/29 02:29:29;;;;;;;;;;;11.60;99.90;;;;;;5020066;28;20279;-82
2023/04/29 02:31:55;;;;;;;;;;;11.60;99.90;;;;;;5019499;28;19921;-82
2023/04/29 02:34:21;;;;;;;;;;;11.60;99.90;;;;;;5021204;28;19912;-82
2023/04/29 02:36:46;;;;;;;;;;;11.60;99.90;;;;;;5021185;28;19909;-84
2023/04/29 02:39:14;;;;;;;;;;;11.60;99.90;;;;;;5012911;28;19909;-88
2023/04/29 02:41:41;;;;;;;;;;;11.70;99.90;;;;;;5012809;28;19913;-86
2023/04/29 02:44:06;;;;;;;;;;;11.70;99.90;;;;;;5026094;28;19905;-81
2023/04/29 02:46:34;;;;;;;;;;;11.70;99.90;;;;;;5005039;28;20269;-86
2023/04/29 02:49:00;;;;;;;;;;;11.70;99.90;;;;;;5024213;28;20016;-87
2023/04/29 02:51:26;;;;;;;;;;;11.70;99.90;;;;;;5022600;28;19909;-86
2023/04/29 02:53:52;;;;;;;;;;;11.70;99.90;;;;;;5017454;28;19912;-87
2023/04/29 02:56:17;;;;;;;;;;;11.70;99.90;;;;;;5035442;28;20420;-87
2023/04/29 02:58:43;;;;;;;;;;;11.60;99.90;;;;;;5027616;28;20178;-85
2023/04/29 03:01:16;;;;;;;;;;;11.60;99.90;;;;;;5026470;28;19917;-82
2023/04/29 03:03:44;;;;;;;;;;;11.70;99.90;;;;;;5002625;28;19909;-83
2023/04/29 03:06:09;;;;;;;;;;;11.70;99.90;;;;;;5016944;28;19925;-82
2023/04/29 03:08:37;;;;;;;;;;;11.60;99.90;;;;;;5018550;28;19912;-82
2023/04/29 03:11:03;;;;;;;;;;;11.60;99.90;;;;;;5017687;28;19921;-82
2023/04/29 03:13:28;;;;;;;;;;;11.60;99.90;;;;;;5003923;28;20410;-83
2023/04/29 03:15:57;;;;;;;;;;;11.60;99.90;;;;;;5021652;28;19908;-83
2023/04/29 03:18:22;;;;;;;;;;;11.70;99.90;;;;;;5017203;28;19905;-82
2023/04/29 03:20:50;;;;;;;;;;;11.70;99.90;;;;;;5002607;28;19932;-84
2023/04/29 03:23:16;;;;;;;;;;;11.70;99.90;;;;;;5018388;28;19952;-82
2023/04/29 03:25:41;;;;;;;;;;;11.70;99.90;;;;;;5011244;28;19998;-83
2023/04/29 03:28:07;;;;;;;;;;;11.60;99.90;;;;;;5038346;28;19893;-81
2023/04/29 03:30:33;;;;;;;;;;;11.60;99.90;;;;;;5024873;28;19905;-82
2023/04/29 03:32:58;;;;;;;;;;;11.60;99.90;;;;;;5001759;28;19943;-81
2023/04/29 03:35:24;;;;;;;;;;;11.60;99.90;;;;;;5020281;28;19905;-83
2023/04/29 03:37:49;;;;;;;;;;;11.60;99.90;;;;;;5000674;28;19917;-82
2023/04/29 03:40:15;;;;;;;;;;;11.60;99.90;;;;;;5019694;28;19908;-83
2023/04/29 03:42:41;;;;;;;;;;;11.60;99.90;;;;;;5017256;28;19920;-82
2023/04/29 03:45:06;;;;;;;;;;;11.60;99.90;;;;;;5011307;28;19910;-87
2023/04/29 03:47:32;;;;;;;;;;;11.60;99.90;;;;;;5002712;28;19913;-82
2023/04/29 03:49:57;;;;;;;;;;;11.60;99.90;;;;;;5019636;28;19971;-87
2023/04/29 03:52:25;;;;;;;;;;;11.60;99.90;;;;;;5000572;28;20360;-88
2023/04/29 03:54:51;;;;;;;;;;;11.60;99.90;;;;;;5020634;28;19940;-86
2023/04/29 03:57:16;;;;;;;;;;;11.60;99.90;;;;;;5023205;28;19913;-86
2023/04/29 03:59:42;;;;;;;;;;;11.60;99.90;;;;;;5023797;28;19912;-84
2023/04/29 04:02:07;;;;;;;;;;;11.60;99.90;;;;;;5030843;28;19976;-88
2023/04/29 04:04:33;;;;;;;;;;;11.60;99.90;;;;;;5018460;28;20030;-84
2023/04/29 04:06:59;;;;;;;;;;;11.60;99.90;;;;;;5023549;28;19917;-87
2023/04/29 04:09:27;;;;;;;;;;;11.60;99.90;;;;;;5005611;28;19905;-86
2023/04/29 04:11:53;;;;;;;;;;;11.60;99.90;;;;;;5002917;28;19913;-87
2023/04/29 04:14:18;;;;;;;;;;;11.50;99.90;;;;;;5008555;28;19916;-86
2023/04/29 04:16:49;;;;;;;;;;;11.60;99.90;;;;;;5024416;28;19912;-86
2023/04/29 04:19:15;;;;;;;;;;;11.60;99.90;;;;;;5027773;28;20005;-85
2023/04/29 04:21:41;;;;;;;;;;;11.60;99.90;;;;;;5021961;28;19945;-86
2023/04/29 04:24:07;;;;;;;;;;;11.60;99.90;;;;;;5021748;28;20755;-85
2023/04/29 04:26:35;;;;;;;;;;;11.50;99.90;;;;;;5022487;28;20004;-86
2023/04/29 04:29:00;;;;;;;;;;;11.50;99.90;;;;;;5020987;28;20547;-86
2023/04/29 04:31:26;;;;;;;;;;;11.60;99.90;;;;;;5016608;28;19985;-82
2023/04/29 04:33:51;;;;;;;;;;;11.60;99.90;;;;;;5017352;28;19988;-83
2023/04/29 04:36:17;;;;;;;;;;;11.60;99.90;;;;;;5020258;28;19909;-83
2023/04/29 04:38:42;;;;;;;;;;;11.60;99.90;;;;;;5020048;28;19905;-82
2023/04/29 04:41:08;;;;;;;;;;;11.60;99.90;;;;;;4998189;28;20344;-82
2023/04/29 04:43:33;;;;;;;;;;;11.60;99.90;;;;;;5019568;28;19912;-82
2023/04/29 04:45:59;;;;;;;;;;;11.70;99.90;;;;;;5023108;28;19912;-86
2023/04/29 04:48:27;;;;;;;;;;;11.60;99.90;;;;;;5019177;28;19913;-87
2023/04/29 04:50:52;;;;;;;;;;;11.70;99.90;;;;;;5021746;28;19920;-89
2023/04/29 04:53:18;;;;;;;;;;;11.70;99.90;;;;;;5010353;28;19924;-88
2023/04/29 04:55:43;;;;;;;;;;;11.70;99.90;;;;;;5012155;28;19948;-89
2023/04/29 04:58:09;;;;;;;;;;;11.70;99.90;;;;;;5012205;28;19915;-88
2023/04/29 05:00:34;;;;;;;;;;;11.70;99.90;;;;;;5030769;28;19913;-87
2023/04/29 05:03:00;;;;;;;;;;;11.70;99.90;;;;;;5024052;28;19917;-88
2023/04/29 05:05:25;;;;;;;;;;;11.70;99.90;;;;;;5011007;28;20133;-88
2023/04/29 05:07:51;;;;;;;;;;;11.70;99.90;;;;;;5012800;28;19905;-88
2023/04/29 05:10:16;;;;;;;;;;;11.80;99.90;;;;;;5010061;28;19924;-87
2023/04/29 05:12:42;;;;;;;;;;;11.80;99.90;;;;;;5008301;28;20357;-88
2023/04/29 05:15:08;;;;;;;;;;;11.80;99.90;;;;;;5030399;28;20385;-87
2023/04/29 05:17:35;;;;;;;;;;;11.70;99.90;;;;;;5029811;28;20422;-88
2023/04/29 05:20:00;;;;;;;;;;;11.70;99.90;;;;;;5029174;28;19975;-88
2023/04/29 05:22:26;;;;;;;;;;;11.70;99.90;;;;;;5028942;28;19909;-88
2023/04/29 05:24:53;;;;;;;;;;;11.80;99.90;;;;;;5020914;28;20169;-88
2023/04/29 05:27:18;;;;;;;;;;;11.80;99.90;;;;;;5030655;28;19909;-88
2023/04/29 05:29:44;;;;;;;;;;;11.80;99.90;;;;;;5009651;28;19932;-88
2023/04/29 05:32:10;;;;;;;;;;;11.80;99.90;;;;;;5010942;28;19909;-88
2023/04/29 05:34:35;;;;;;;;;;;11.80;99.90;;;;;;5028732;28;19958;-88
2023/04/29 05:37:03;;;;;;;;;;;11.90;99.90;;;;;;5028494;28;19905;-88
2023/04/29 05:39:28;;;;;;;;;;;11.90;99.90;;;;;;5023365;28;19916;-89
2023/04/29 05:41:54;;;;;;;;;;;11.90;99.90;;;;;;5033470;28;19900;-87
2023/04/29 05:44:19;;;;;;;;;;;11.90;99.90;;;;;;5029293;28;19920;-88
2023/04/29 05:46:47;;;;;;;;;;;11.80;99.90;;;;;;5016753;28;19909;-87
2023/04/29 05:49:13;;;;;;;;;;;11.90;99.90;;;;;;5029703;28;19940;-88
2023/04/29 05:51:38;;;;;;;;;;;11.90;99.90;;;;;;5024922;28;19967;-86
2023/04/29 05:54:03;;;;;;;;;;;11.90;99.90;;;;;;5028042;28;20211;-89
2023/04/29 05:56:30;;;;;;;;;;;11.90;99.90;;;;;;5030438;28;19917;-87
2023/04/29 05:58:55;;;;;;;;;;;12.00;99.90;;;;;;5026548;28;20162;-88
2023/04/29 06:01:21;;;;;;;;;;;12.00;99.90;;;;;;5019151;28;20004;-88
2023/04/29 06:03:46;;;;;;;;;;;12.00;99.90;;;;;;5027022;28;19905;-88
2023/04/29 06:06:12;;;;;;;;;;;12.10;99.90;;;;;;5028318;28;19909;-87
2023/04/29 06:08:37;;;;;;;;;;;12.10;99.90;;;;;;5022307;28;19905;-88
2023/04/29 06:11:04;;;;;;;;;;;12.20;99.90;;;;;;5021958;28;20441;-88
2023/04/29 06:13:30;;;;;;;;;;;12.20;99.90;;;;;;5010466;28;19919;-89
2023/04/29 06:15:56;;;;;;;;;;;12.30;99.90;;;;;;5011811;28;19952;-88
2023/04/29 06:18:22;;;;;;;;;;;12.30;99.90;;;;;;5010891;28;19955;-88
2023/04/29 06:20:47;;;;;;;;;;;12.30;99.90;;;;;;5009670;28;19959;-88
2023/04/29 06:23:13;;;;;;;;;;;12.30;99.90;;;;;;5028499;28;19905;-88
2023/04/29 06:25:46;;;;;;;;;;;12.30;99.90;;;;;;5010346;28;19909;-88
2023/04/29 06:28:14;;;;;;;;;;;12.30;99.90;;;;;;5011130;28;19909;-88
2023/04/29 06:30:40;;;;;;;;;;;12.30;99.90;;;;;;5023342;28;19927;-88
2023/04/29 06:33:06;;;;;;;;;;;12.30;99.90;;;;;;5012988;28;20353;-88
2023/04/29 06:35:32;;;;;;;;;;;12.20;99.90;;;;;;5010990;28;19996;-87
2023/04/29 06:37:57;;;;;;;;;;;12.40;99.90;;;;;;5014221;28;19952;-86
2023/04/29 06:40:25;;;;;;;;;;;12.40;99.90;;;;;;5017748;28;19909;-89
2023/04/29 06:42:51;;;;;;;;;;;12.40;99.90;;;;;;5014793;28;20458;-89
2023/04/29 06:45:17;;;;;;;;;;;12.40;99.90;;;;;;5015878;28;19909;-89
2023/04/29 06:47:42;;;;;;;;;;;12.40;99.90;;;;;;5010649;28;19931;-89
2023/04/29 06:50:10;;;;;;;;;;;12.40;99.90;;;;;;5012582;28;19943;-88
2023/04/29 06:52:36;;;;;;;;;;;12.40;99.90;;;;;;5011066;28;20422;-88
2023/04/29 06:55:02;;;;;;;;;;;12.40;99.90;;;;;;5018574;28;19913;-88
2023/04/29 06:57:27;;;;;;;;;;;12.40;99.90;;;;;;5019162;28;19979;-87
2023/04/29 06:59:53;;;;;;;;;;;12.40;99.90;;;;;;5047295;28;19913;-88
2023/04/29 07:02:18;;;;;;;;;;;12.50;99.90;;;;;;5022768;28;19909;-89
2023/04/29 07:04:44;;;;;;;;;;;12.50;99.90;;;;;;5018278;28;19968;-87
2023/04/29 07:07:10;;;;;;;;;;;12.50;99.90;;;;;;5025210;28;19906;-89
2023/04/29 07:09:36;;;;;;;;;;;12.60;99.90;;;;;;5013123;28;19959;-89
2023/04/29 07:12:02;;;;;;;;;;;12.70;99.90;;;;;;5012013;28;19909;-91
2023/04/29 07:14:28;;;;;;;;;;;12.60;99.90;;;;;;5011226;28;19905;-89
2023/04/29 07:16:54;;;;;;;;;;;12.60;99.90;;;;;;5017333;28;19909;-89
2023/04/29 07:19:19;;;;;;;;;;;12.70;99.90;;;;;;5022204;28;20011;-89
2023/04/29 07:21:45;;;;;;;;;;;12.70;99.90;;;;;;5015953;28;19909;-90
2023/04/29 07:24:10;;;;;;;;;;;12.60;99.90;;;;;;5016741;28;19921;-90
2023/04/29 07:26:36;;;;;;;;;;;12.60;99.90;;;;;;5011019;28;19955;-89
2023/04/29 07:29:01;;;;;;;;;;;12.60;99.90;;;;;;5026766;28;19909;-90
2023/04/29 07:31:28;;;;;;;;;;;12.60;99.90;;;;;;5010227;28;19945;-88
2023/04/29 07:33:54;;;;;;;;;;;12.60;99.90;;;;;;5010698;28;20387;-90
2023/04/29 07:36:20;;;;;;;;;;;12.70;99.90;;;;;;5009175;28;19940;-91
2023/04/29 07:38:45;;;;;;;;;;;12.90;99.90;;;;;;5017176;28;19905;-90
2023/04/29 07:41:11;;;;;;;;;;;12.90;99.90;;;;;;5010677;28;20210;-90
2023/04/29 07:43:36;;;;;;;;;;;13.00;99.90;;;;;;5012373;28;19916;-88
2023/04/29 07:46:02;;;;;;;;;;;13.00;99.90;;;;;;5014118;28;19909;-89
2023/04/29 07:48:27;;;;;;;;;;;13.00;99.90;;;;;;5014640;28;19905;-90
2023/04/29 07:50:56;;;;;;;;;;;12.90;99.90;;;;;;5023091;28;19984;-88
2023/04/29 07:53:21;;;;;;;;;;;12.90;99.90;;;;;;5030622;28;19929;-90
2023/04/29 07:55:47;;;;;;;;;;;12.90;99.90;;;;;;5036960;28;19936;-89
2023/04/29 07:58:20;;;;;;;;;;;13.00;99.90;;;;;;5031481;28;19901;-90
2023/04/29 08:00:46;;;;;;;;;;;13.00;99.90;;;;;;5019401;28;19917;-90
2023/04/29 08:03:11;;;;;;;;;;;13.00;99.90;;;;;;5017055;28;19905;-93
2023/04/29 08:05:37;;;;;;;;;;;13.00;99.90;;;;;;5010374;28;19921;-89
2023/04/29 08:08:03;;;;;;;;;;;13.00;99.90;;;;;;5017572;28;19988;-91
2023/04/29 08:10:28;;;;;;;;;;;13.00;99.90;;;;;;5026099;28;20008;-90
2023/04/29 08:12:54;;;;;;;;;;;13.10;99.90;;;;;;5020775;28;19920;-89
2023/04/29 08:15:20;;;;;;;;;;;13.10;99.90;;;;;;5026863;28;19909;-87
2023/04/29 08:17:46;;;;;;;;;;;13.10;99.90;;;;;;5012242;28;20521;-88
2023/04/29 08:20:11;;;;;;;;;;;13.20;99.90;;;;;;5003508;28;19922;-87
2023/04/29 08:22:37;;;;;;;;;;;13.10;99.90;;;;;;5010809;28;19916;-90
2023/04/29 08:25:03;;;;;;;;;;;13.20;99.90;;;;;;5030044;28;20617;-89
2023/04/29 08:27:30;;;;;;;;;;;13.40;99.90;;;;;;5009687;28;19920;-90
2023/04/29 08:29:55;;;;;;;;;;;13.50;99.90;;;;;;5026542;28;19939;-88
2023/04/29 08:32:21;;;;;;;;;;;13.40;99.90;;;;;;5012918;28;19917;-89
2023/04/29 08:34:47;;;;;;;;;;;13.40;99.90;;;;;;5018350;28;19909;-89
2023/04/29 08:37:12;;;;;;;;;;;13.40;99.90;;;;;;5019615;28;19931;-90
2023/04/29 08:39:38;;;;;;;;;;;13.50;99.90;;;;;;5015034;28;19921;-89
2023/04/29 08:42:07;;;;;;;;;;;13.70;99.90;;;;;;5013787;28;20271;-91
2023/04/29 08:44:33;;;;;;;;;;;13.70;99.90;;;;;;5012776;28;19921;-89
2023/04/29 08:47:06;;;;;;;;;;;13.80;99.90;;;;;;5016949;28;20229;-89
2023/04/29 08:49:32;;;;;;;;;;;13.90;99.90;;;;;;5044859;28;19980;-90
2023/04/29 08:51:58;;;;;;;;;;;14.10;99.90;;;;;;5031944;28;19928;-86
2023/04/29 08:54:24;;;;;;;;;;;14.10;99.90;;;;;;5015816;28;19983;-90
2023/04/29 08:56:50;;;;;;;;;;;14.30;99.90;;;;;;5029890;28;20197;-87
2023/04/29 08:59:16;;;;;;;;;;;14.20;99.90;;;;;;5012077;28;19924;-87
2023/04/29 09:01:42;;;;;;;;;;;14.20;99.90;;;;;;5013933;28;19931;-88
2023/04/29 09:04:08;;;;;;;;;;;14.00;99.90;;;;;;5019581;28;19944;-88
2023/04/29 09:06:33;;;;;;;;;;;14.10;99.90;;;;;;5028845;28;19911;-84
2023/04/29 09:09:00;;;;;;;;;;;14.20;99.90;;;;;;5030470;28;20404;-87
2023/04/29 09:11:26;;;;;;;;;;;14.40;99.90;;;;;;5031796;28;19932;-88
2023/04/29 09:13:57;;;;;;;;;;;14.30;99.90;;;;;;5011025;28;19942;-86
2023/04/29 09:16:22;;;;;;;;;;;14.30;99.90;;;;;;5023491;28;19920;-86
2023/04/29 09:18:49;;;;;;;;;;;14.30;99.90;;;;;;5022963;28;19909;-93
2023/04/29 09:21:17;;;;;;;;;;;14.40;99.90;;;;;;5019364;28;19909;-89
2023/04/29 09:23:44;;;;;;;;;;;14.60;99.90;;;;;;5012171;28;20352;-84
2023/04/29 09:26:09;;;;;;;;;;;14.60;99.90;;;;;;5027340;28;19909;-85
2023/04/29 09:28:35;;;;;;;;;;;14.70;99.90;;;;;;5017452;28;20343;-85
2023/04/29 09:31:05;;;;;;;;;;;14.60;99.90;;;;;;5010645;28;19914;-84
2023/04/29 09:33:31;;;;;;;;;;;14.70;99.90;;;;;;5025005;28;19921;-85
2023/04/29 09:35:59;;;;;;;;;;;14.90;99.90;;;;;;5015439;28;20011;-84
2023/04/29 09:38:25;;;;;;;;;;;15.00;99.90;;;;;;5026594;28;19927;-85
2023/04/29 09:40:52;;;;;;;;;;;15.10;99.90;;;;;;5012195;28;20328;-85
2023/04/29 09:43:20;;;;;;;;;;;15.30;99.90;;;;;;5026275;28;19916;-86
2023/04/29 09:45:46;;;;;;;;;;;15.40;99.90;;;;;;5021887;28;19940;-84
2023/04/29 09:48:24;;;;;;;;;;;15.50;99.90;;;;;;5014756;28;20008;-87
2023/04/29 09:51:17;;;;;;;;;;;15.50;99.90;;;;;;5030289;28;19921;-85
2023/04/29 09:53:44;;;;;;;;;;;15.60;99.90;;;;;;5006871;28;19932;-84
2023/04/29 09:56:09;;;;;;;;;;;15.60;99.90;;;;;;5027372;28;20356;-83
2023/04/29 09:58:39;;;;;;;;;;;15.60;99.90;;;;;;5011566;28;19909;-86
2023/04/29 10:01:05;;;;;;;;;;;15.70;99.90;;;;;;5011222;28;19913;-86
2023/04/29 10:03:37;;;;;;;;;;;15.90;99.90;;;;;;5010182;28;19905;-87
2023/04/29 10:06:06;;;;;;;;;;;16.10;99.90;;;;;;5009150;28;19932;-86
2023/04/29 10:08:32;;;;;;;;;;;16.20;99.90;;;;;;5007950;28;19909;-87
2023/04/29 10:11:01;;;;;;;;;;;16.50;99.90;;;;;;5004729;28;19932;-87
2023/04/29 10:13:27;;;;;;;;;;;16.60;99.90;;;;;;5023779;28;21327;-87
2023/04/29 10:15:59;;;;;;;;;;;17.10;99.90;;;;;;5010683;28;19990;-86
2023/04/29 10:18:51;;;;;;;;;;;17.50;99.90;;;;;;4998563;28;19905;-87
2023/04/29 10:21:17;;;;;;;;;;;17.90;99.90;;;;;;5010984;28;19987;-87
2023/04/29 10:23:43;;;;;;;;;;;18.10;99.90;;;;;;5009615;28;19960;-86
2023/04/29 10:26:11;;;;;;;;;;;17.90;99.90;;;;;;5023806;28;19996;-86
2023/04/29 10:28:38;;;;;;;;;;;18.10;99.90;;;;;;5004627;28;20392;-87
2023/04/29 10:31:05;;;;;;;;;;;18.70;99.90;;;;;;5018187;28;19917;-86
2023/04/29 10:33:34;;;;;;;;;;;19.60;99.90;;;;;;5028490;28;19947;-87
2023/04/29 10:36:00;;;;;;;;;;;20.30;99.90;;;;;;5018066;28;19908;-88
2023/04/29 10:38:35;;;;;;;;;;;20.90;99.90;;;;;;5029123;28;19905;-87
2023/04/29 10:41:03;;;;;;;;;;;21.10;99.90;;;;;;5003216;28;19910;-82
2023/04/29 10:43:28;;;;;;;;;;;21.30;99.90;;;;;;5005942;28;19913;-88
2023/04/29 10:46:25;;;;;;;;;;;21.10;98.20;;;;;;5010749;28;20417;-85
2023/04/29 10:49:00;;;;;;;;;;;20.70;98.60;;;;;;5009379;28;19905;-89
2023/04/29 10:51:31;;;;;;;;;;;20.30;97.60;;;;;;5011293;28;19912;-91
2023/04/29 10:54:00;;;;;;;;;;;20.20;99.10;;;;;;5009734;28;20308;-89
2023/04/29 10:56:39;;;;;;;;;;;20.10;98.90;;;;;;5012598;28;20383;-91
2023/04/29 10:59:04;;;;;;;;;;;20.40;98.20;;;;;;5028193;28;19974;-89
2023/04/29 11:01:43;;;;;;;;;;;21.50;96.90;;;;;;5018347;28;19905;-92
2023/04/29 11:04:10;;;;;;;;;;;21.40;95.70;;;;;;5003993;28;20280;-85
2023/04/29 11:06:35;;;;;;;;;;;21.30;95.40;;;;;;5029051;28;19915;-90
2023/04/29 11:09:13;;;;;;;;;;;20.90;95.30;;;;;;5011804;28;19957;-88
2023/04/29 11:11:59;;;;;;;;;;;20.50;95.30;;;;;;5022588;28;19913;-88
2023/04/29 11:14:29;;;;;;;;;;;20.40;95.40;;;;;;5006876;28;19913;-88
2023/04/29 11:16:56;;;;;;;;;;;20.20;96.90;;;;;;5025897;28;19917;-88
2023/04/29 11:19:23;;;;;;;;;;;20.60;96.10;;;;;;5010007;28;20382;-87
2023/04/29 11:22:02;;;;;;;;;;;21.00;94.10;;;;;;5013378;28;19988;-88
2023/04/29 11:24:27;;;;;;;;;;;20.70;94.40;;;;;;5030426;28;20260;-88
2023/04/29 11:26:53;;;;;;;;;;;21.20;95.00;;;;;;5011020;28;19909;-88
2023/04/29 11:29:20;;;;;;;;;;;20.80;94.40;;;;;;5011427;28;20277;-88
2023/04/29 11:31:45;;;;;;;;;;;20.40;94.00;;;;;;5015481;28;19921;-88
2023/04/29 11:34:11;;;;;;;;;;;20.30;95.40;;;;;;5020096;28;20361;-89
2023/04/29 11:36:36;;;;;;;;;;;20.30;94.60;;;;;;5015791;28;19960;-88
2023/04/29 11:39:03;;;;;;;;;;;20.20;94.00;;;;;;5027252;28;20383;-88
2023/04/29 11:41:31;;;;;;;;;;;20.20;93.70;;;;;;5018110;28;20145;-88
2023/04/29 11:43:58;;;;;;;;;;;20.20;94.40;;;;;;5036737;28;19905;-88
2023/04/29 11:46:24;;;;;;;;;;;20.10;93.20;;;;;;5019322;28;19915;-88
2023/04/29 11:48:49;;;;;;;;;;;19.80;92.90;;;;;;5019014;28;20003;-87
2023/04/29 11:51:16;;;;;;;;;;;19.40;94.20;;;;;;5010978;28;19964;-88
2023/04/29 11:53:41;;;;;;;;;;;19.00;95.10;;;;;;5020417;28;19951;-88
2023/04/29 11:56:08;;;;;;;;;;;18.90;96.00;;;;;;5015096;28;20073;-81
2023/04/29 11:58:33;;;;;;;;;;;18.80;97.20;;;;;;5033881;28;19939;-87
2023/04/29 12:00:59;;;;;;;;;;;18.90;96.50;;;;;;5016266;28;19916;-87
2023/04/29 12:03:25;;;;;;;;;;;18.90;95.50;;;;;;5010787;28;19909;-87
2023/04/29 12:05:53;;;;;;;;;;;19.00;95.90;;;;;;5015973;28;20391;-86
2023/04/29 12:08:22;;;;;;;;;;;19.00;95.80;;;;;;5025849;28;19913;-87
2023/04/29 12:10:48;;;;;;;;;;;18.90;96.10;;;;;;5032256;28;19935;-87
2023/04/29 12:13:15;;;;;;;;;;;18.90;95.90;;;;;;5012196;28;19909;-86
2023/04/29 12:15:41;;;;;;;;;;;18.60;96.20;;;;;;5012781;28;19912;-85
2023/04/29 12:18:07;;;;;;;;;;;18.50;96.30;;;;;;5018254;28;19909;-86
2023/04/29 12:20:32;;;;;;;;;;;18.30;96.20;;;;;;5015006;28;19967;-86
2023/04/29 12:23:14;;;;;;;;;;;18.40;96.50;;;;;;5017310;28;19972;-87
2023/04/29 12:25:40;;;;;;;;;;;18.40;96.60;;;;;;5028341;28;19984;-86
2023/04/29 12:28:12;;;;;;;;;;;18.40;97.50;;;;;;5015923;28;20019;-86
2023/04/29 12:30:38;;;;;;;;;;;18.60;97.00;;;;;;5028536;28;19912;-86
2023/04/29 12:33:03;;;;;;;;;;;18.90;96.10;;;;;;5017266;28;20003;-86
2023/04/29 12:35:30;;;;;;;;;;;19.10;95.40;;;;;;5026116;28;19920;-86
2023/04/29 12:37:58;;;;;;;;;;;19.20;95.00;;;;;;5006365;28;19906;-86
2023/04/29 12:40:52;;;;;;;;;;;19.20;95.10;;;;;;5012816;28;19913;-86
2023/04/29 12:43:17;;;;;;;;;;;19.50;94.90;;;;;;5043352;28;19909;-87
2023/04/29 12:45:43;;;;;;;;;;;19.70;94.50;;;;;;5022508;28;19904;-86
2023/04/29 12:48:10;;;;;;;;;;;19.80;94.00;;;;;;5014645;28;19923;-86
2023/04/29 12:50:36;;;;;;;;;;;19.90;93.90;;;;;;5027824;28;19901;-86
2023/04/29 12:53:09;;;;;;;;;;;19.80;94.30;;;;;;5009245;28;20305;-86
2023/04/29 12:55:35;;;;;;;;;;;19.90;94.40;;;;;;5022425;28;19963;-85
2023/04/29 12:58:01;;;;;;;;;;;20.00;93.20;;;;;;5008887;28;19980;-86
2023/04/29 13:00:27;;;;;;;;;;;20.20;94.50;;;;;;5022030;28;20552;-87
2023/04/29 13:02:52;;;;;;;;;;;20.50;93.10;;;;;;5023294;28;19905;-86
2023/04/29 13:05:21;;;;;;;;;;;20.50;93.00;;;;;;5026442;28;19951;-86
2023/04/29 13:07:47;;;;;;;;;;;20.40;92.50;;;;;;5014344;28;20000;-87
2023/04/29 13:10:13;;;;;;;;;;;20.20;92.20;;;;;;5014247;28;19947;-86
2023/04/29 13:12:42;;;;;;;;;;;19.80;92.70;;;;;;5013628;28;20011;-86
2023/04/29 13:15:09;;;;;;;;;;;19.70;93.60;;;;;;5012983;28;20037;-86
2023/04/29 13:17:35;;;;;;;;;;;19.40;93.40;;;;;;5022428;28;19905;-86
2023/04/29 13:20:04;;;;;;;;;;;19.40;93.40;;;;;;5019651;28;19912;-86
2023/04/29 13:22:30;;;;;;;;;;;19.30;93.10;;;;;;5013965;28;20020;-91
2023/04/29 13:24:56;;;;;;;;;;;19.30;93.60;;;;;;5021791;28;20503;-92
2023/04/29 13:27:21;;;;;;;;;;;19.10;93.30;;;;;;5022224;28;19905;-92
2023/04/29 13:29:47;;;;;;;;;;;19.00;93.50;;;;;;5014066;28;19909;-93
2023/04/29 13:32:12;;;;;;;;;;;18.80;94.20;;;;;;5025004;28;19999;-91
2023/04/29 13:34:41;;;;;;;;;;;18.80;94.30;;;;;;5016844;28;19905;-92
2023/04/29 13:37:07;;;;;;;;;;;18.80;94.20;;;;;;5016719;28;20603;-86
2023/04/29 13:39:35;;;;;;;;;;;18.80;94.00;;;;;;5013615;28;19917;-86
2023/04/29 13:42:02;;;;;;;;;;;19.10;94.70;;;;;;5016825;28;19905;-86
2023/04/29 13:44:28;;;;;;;;;;;19.50;94.60;;;;;;5030817;28;19967;-86
2023/04/29 13:46:53;;;;;;;;;;;20.10;93.20;;;;;;5017141;28;19956;-86
2023/04/29 13:49:26;;;;;;;;;;;20.50;91.50;;;;;;5015747;28;20372;-87
2023/04/29 13:51:51;;;;;;;;;;;21.10;92.10;;;;;;5011369;28;19916;-87
2023/04/29 13:54:19;;;;;;;;;;;21.60;91.70;;;;;;5010227;28;20289;-87
2023/04/29 13:56:47;;;;;;;;;;;21.70;90.00;;;;;;5022443;28;20331;-87
2023/04/29 13:59:13;;;;;;;;;;;21.50;88.90;;;;;;5012115;28;19909;-89
2023/04/29 14:01:56;;;;;;;;;;;21.60;89.10;;;;;;5021624;28;19916;-87
2023/04/29 14:04:22;;;;;;;;;;;21.60;86.30;;;;;;5014701;28;19905;-87
2023/04/29 14:06:47;;;;;;;;;;;22.10;88.30;;;;;;5036077;28;20019;-87
2023/04/29 14:09:13;;;;;;;;;;;22.20;84.60;;;;;;5027025;28;19905;-87
2023/04/29 14:11:38;;;;;;;;;;;21.90;84.30;;;;;;5014514;28;20058;-86
2023/04/29 14:14:04;;;;;;;;;;;21.50;83.50;;;;;;5011822;28;19905;-86
2023/04/29 14:16:29;;;;;;;;;;;21.30;85.20;;;;;;5028517;28;19909;-86